sensor_id;sensor_type;location;lat;lon;timestamp;pressure;altitude;pressure_sealevel;temperature;humidity
55801;BME280;41730;51.960;20.158;2023-02-08T00:02:14;102879.18;;;0.17;76.23
55801;BME280;41730;51.960;20.158;2023-02-08T00:04:46;102883.79;;;0.07;76.63
55801;BME280;41730;51.960;20.158;2023-02-08T00:07:18;102880.98;;;-0.03;77.16
55801;BME280;41730;51.960;20.158;2023-02-08T00:09:50;102883.23;;;-0.06;77.09
55801;BME280;41730;51.960;20.158;2023-02-08T00:12:21;102880.46;;;-0.07;77.00
55801;BME280;41730;51.960;20.158;2023-02-08T00:14:55;102879.77;;;-0.07;77.12
55801;BME280;41730;51.960;20.158;2023-02-08T00:17:26;102880.08;;;-0.15;77.29
55801;BME280;41730;51.960;20.158;2023-02-08T00:19:58;102883.34;;;-0.20;77.24
55801;BME280;41730;51.960;20.158;2023-02-08T00:22:30;102883.99;;;-0.26;77.27
55801;BME280;41730;51.960;20.158;2023-02-08T00:25:01;102889.38;;;-0.18;77.17
55801;BME280;41730;51.960;20.158;2023-02-08T00:27:33;102885.94;;;-0.16;76.90
55801;BME280;41730;51.960;20.158;2023-02-08T00:30:07;102886.13;;;-0.15;76.76
55801;BME280;41730;51.960;20.158;2023-02-08T00:32:39;102886.80;;;-0.18;76.87
55801;BME280;41730;51.960;20.158;2023-02-08T00:35:10;102886.17;;;-0.05;76.66
55801;BME280;41730;51.960;20.158;2023-02-08T00:37:42;102888.41;;;-0.04;76.31
55801;BME280;41730;51.960;20.158;2023-02-08T00:40:14;102893.42;;;-0.03;76.36
55801;BME280;41730;51.960;20.158;2023-02-08T00:42:46;102895.67;;;-0.01;76.31
55801;BME280;41730;51.960;20.158;2023-02-08T00:45:18;102899.67;;;0.04;76.19
55801;BME280;41730;51.960;20.158;2023-02-08T00:47:50;102901.70;;;-0.04;76.44
55801;BME280;41730;51.960;20.158;2023-02-08T00:50:21;102904.05;;;-0.13;76.81
55801;BME280;41730;51.960;20.158;2023-02-08T00:52:53;102905.11;;;-0.09;76.77
55801;BME280;41730;51.960;20.158;2023-02-08T00:55:25;102903.19;;;-0.14;76.75
55801;BME280;41730;51.960;20.158;2023-02-08T00:57:57;102906.98;;;-0.15;76.91
55801;BME280;41730;51.960;20.158;2023-02-08T01:00:28;102913.23;;;-0.07;76.63
55801;BME280;41730;51.960;20.158;2023-02-08T01:03:00;102912.18;;;-0.11;76.62
55801;BME280;41730;51.960;20.158;2023-02-08T01:05:32;102911.70;;;-0.02;76.16
55801;BME280;41730;51.960;20.158;2023-02-08T01:08:04;102909.34;;;0.11;75.71
55801;BME280;41730;51.960;20.158;2023-02-08T01:10:35;102911.19;;;-0.02;75.81
55801;BME280;41730;51.960;20.158;2023-02-08T01:13:08;102916.63;;;-0.17;76.51
55801;BME280;41730;51.960;20.158;2023-02-08T01:15:40;102916.36;;;-0.01;76.24
55801;BME280;41730;51.960;20.158;2023-02-08T01:18:11;102910.49;;;-0.04;76.07
55801;BME280;41730;51.960;20.158;2023-02-08T01:20:43;102915.13;;;-0.07;75.94
55801;BME280;41730;51.960;20.158;2023-02-08T01:23:15;102913.42;;;0.00;75.43
55801;BME280;41730;51.960;20.158;2023-02-08T01:25:46;102914.89;;;-0.19;75.89
55801;BME280;41730;51.960;20.158;2023-02-08T01:28:18;102911.39;;;-0.30;76.66
55801;BME280;41730;51.960;20.158;2023-02-08T01:30:49;102910.24;;;-0.19;76.32
55801;BME280;41730;51.960;20.158;2023-02-08T01:33:21;102910.11;;;-0.11;76.03
55801;BME280;41730;51.960;20.158;2023-02-08T01:35:53;102906.34;;;-0.05;75.51
55801;BME280;41730;51.960;20.158;2023-02-08T01:38:25;102911.02;;;-0.01;75.49
55801;BME280;41730;51.960;20.158;2023-02-08T01:40:57;102907.77;;;0.06;75.40
55801;BME280;41730;51.960;20.158;2023-02-08T01:43:30;102905.36;;;0.08;75.46
55801;BME280;41730;51.960;20.158;2023-02-08T01:46:02;102904.89;;;0.16;74.94
55801;BME280;41730;51.960;20.158;2023-02-08T01:48:36;102906.61;;;0.18;74.73
55801;BME280;41730;51.960;20.158;2023-02-08T01:51:12;102902.66;;;0.22;74.74
55801;BME280;41730;51.960;20.158;2023-02-08T01:53:45;102911.66;;;0.32;74.56
55801;BME280;41730;51.960;20.158;2023-02-08T01:56:22;102909.25;;;0.33;74.19
55801;BME280;41730;51.960;20.158;2023-02-08T01:58:57;102906.96;;;0.21;74.31
55801;BME280;41730;51.960;20.158;2023-02-08T02:01:31;102915.23;;;0.17;74.56
55801;BME280;41730;51.960;20.158;2023-02-08T02:04:04;102917.99;;;0.16;74.61
55801;BME280;41730;51.960;20.158;2023-02-08T02:06:40;102916.98;;;0.26;74.84
55801;BME280;41730;51.960;20.158;2023-02-08T02:09:18;102917.67;;;0.24;74.37
55801;BME280;41730;51.960;20.158;2023-02-08T02:11:53;102916.45;;;0.19;74.62
55801;BME280;41730;51.960;20.158;2023-02-08T02:14:27;102918.54;;;0.23;74.67
55801;BME280;41730;51.960;20.158;2023-02-08T02:17:01;102915.96;;;0.28;74.36
55801;BME280;41730;51.960;20.158;2023-02-08T02:19:39;102920.09;;;0.22;74.26
55801;BME280;41730;51.960;20.158;2023-02-08T02:22:28;102919.02;;;0.15;74.60
55801;BME280;41730;51.960;20.158;2023-02-08T02:25:22;102923.19;;;0.23;74.52
55801;BME280;41730;51.960;20.158;2023-02-08T02:31:47;102920.96;;;0.28;74.45
55801;BME280;41730;51.960;20.158;2023-02-08T02:34:25;102921.83;;;0.27;74.04
55801;BME280;41730;51.960;20.158;2023-02-08T02:37:06;102920.60;;;0.20;74.12
55801;BME280;41730;51.960;20.158;2023-02-08T02:39:47;102919.54;;;0.14;74.03
55801;BME280;41730;51.960;20.158;2023-02-08T02:42:26;102917.09;;;0.06;74.42
55801;BME280;41730;51.960;20.158;2023-02-08T02:45:25;102917.23;;;0.04;74.59
55801;BME280;41730;51.960;20.158;2023-02-08T02:48:04;102918.66;;;0.11;74.37
55801;BME280;41730;51.960;20.158;2023-02-08T02:50:39;102922.31;;;0.19;74.31
55801;BME280;41730;51.960;20.158;2023-02-08T02:53:18;102923.56;;;0.30;73.82
55801;BME280;41730;51.960;20.158;2023-02-08T02:55:55;102926.65;;;0.24;73.78
55801;BME280;41730;51.960;20.158;2023-02-08T02:58:28;102926.80;;;0.19;73.84
55801;BME280;41730;51.960;20.158;2023-02-08T03:01:01;102930.05;;;0.16;74.24
55801;BME280;41730;51.960;20.158;2023-02-08T03:03:34;102927.14;;;0.17;74.37
55801;BME280;41730;51.960;20.158;2023-02-08T03:06:09;102924.56;;;0.20;73.98
55801;BME280;41730;51.960;20.158;2023-02-08T03:08:54;102926.96;;;0.16;74.55
55801;BME280;41730;51.960;20.158;2023-02-08T03:11:29;102930.42;;;0.17;74.51
55801;BME280;41730;51.960;20.158;2023-02-08T03:14:18;102933.00;;;0.15;74.66
55801;BME280;41730;51.960;20.158;2023-02-08T03:17:04;102931.83;;;0.24;74.32
55801;BME280;41730;51.960;20.158;2023-02-08T03:19:48;102933.52;;;0.17;74.38
55801;BME280;41730;51.960;20.158;2023-02-08T03:22:27;102933.38;;;0.26;73.93
55801;BME280;41730;51.960;20.158;2023-02-08T03:25:08;102938.71;;;0.23;74.03
55801;BME280;41730;51.960;20.158;2023-02-08T03:27:50;102941.46;;;0.16;74.16
55801;BME280;41730;51.960;20.158;2023-02-08T03:30:28;102944.54;;;0.12;74.36
55801;BME280;41730;51.960;20.158;2023-02-08T03:33:03;102944.20;;;0.09;74.31
55801;BME280;41730;51.960;20.158;2023-02-08T03:35:35;102942.29;;;0.10;74.20
55801;BME280;41730;51.960;20.158;2023-02-08T03:38:12;102945.08;;;0.16;74.21
55801;BME280;41730;51.960;20.158;2023-02-08T03:40:48;102945.74;;;0.12;74.17
55801;BME280;41730;51.960;20.158;2023-02-08T03:43:25;102942.46;;;0.08;74.02
55801;BME280;41730;51.960;20.158;2023-02-08T03:46:05;102944.03;;;0.12;73.74
55801;BME280;41730;51.960;20.158;2023-02-08T03:48:44;102944.17;;;0.07;74.17
55801;BME280;41730;51.960;20.158;2023-02-08T03:51:18;102945.70;;;0.01;74.37
55801;BME280;41730;51.960;20.158;2023-02-08T03:53:53;102943.96;;;0.01;74.39
55801;BME280;41730;51.960;20.158;2023-02-08T03:56:32;102948.64;;;0.05;74.58
55801;BME280;41730;51.960;20.158;2023-02-08T03:59:08;102943.80;;;0.02;74.88
55801;BME280;41730;51.960;20.158;2023-02-08T04:01:45;102941.58;;;0.07;74.70
55801;BME280;41730;51.960;20.158;2023-02-08T04:04:19;102936.38;;;-0.00;74.78
55801;BME280;41730;51.960;20.158;2023-02-08T04:06:51;102940.02;;;0.06;74.73
55801;BME280;41730;51.960;20.158;2023-02-08T04:09:22;102942.27;;;0.06;74.39
55801;BME280;41730;51.960;20.158;2023-02-08T04:11:54;102938.45;;;-0.00;74.43
55801;BME280;41730;51.960;20.158;2023-02-08T04:14:26;102937.59;;;0.02;74.41
55801;BME280;41730;51.960;20.158;2023-02-08T04:16:58;102936.60;;;0.09;74.07
55801;BME280;41730;51.960;20.158;2023-02-08T04:19:29;102937.48;;;0.14;73.97
55801;BME280;41730;51.960;20.158;2023-02-08T04:22:01;102944.16;;;0.07;74.13
55801;BME280;41730;51.960;20.158;2023-02-08T04:24:33;102943.80;;;0.01;74.32
55801;BME280;41730;51.960;20.158;2023-02-08T04:27:05;102946.02;;;-0.01;74.52
55801;BME280;41730;51.960;20.158;2023-02-08T04:29:36;102946.38;;;-0.01;74.43
55801;BME280;41730;51.960;20.158;2023-02-08T04:32:08;102945.83;;;-0.05;74.83
55801;BME280;41730;51.960;20.158;2023-02-08T04:34:42;102947.92;;;-0.02;74.71
55801;BME280;41730;51.960;20.158;2023-02-08T04:37:20;102948.80;;;0.00;74.57
55801;BME280;41730;51.960;20.158;2023-02-08T04:39:58;102945.19;;;0.02;74.65
55801;BME280;41730;51.960;20.158;2023-02-08T04:42:36;102944.60;;;-0.10;75.12
55801;BME280;41730;51.960;20.158;2023-02-08T04:45:11;102941.52;;;-0.05;74.89
55801;BME280;41730;51.960;20.158;2023-02-08T04:47:42;102945.33;;;-0.05;74.93
55801;BME280;41730;51.960;20.158;2023-02-08T04:50:14;102944.46;;;-0.03;75.23
55801;BME280;41730;51.960;20.158;2023-02-08T04:52:46;102944.63;;;-0.04;74.90
55801;BME280;41730;51.960;20.158;2023-02-08T04:55:18;102944.81;;;-0.03;75.06
55801;BME280;41730;51.960;20.158;2023-02-08T04:57:49;102949.65;;;-0.02;75.36
55801;BME280;41730;51.960;20.158;2023-02-08T05:00:21;102951.05;;;-0.00;75.36
55801;BME280;41730;51.960;20.158;2023-02-08T05:02:55;102950.36;;;0.05;75.66
55801;BME280;41730;51.960;20.158;2023-02-08T05:05:28;102947.13;;;0.10;75.27
55801;BME280;41730;51.960;20.158;2023-02-08T05:08:00;102949.02;;;0.09;75.38
55801;BME280;41730;51.960;20.158;2023-02-08T05:10:31;102950.91;;;0.09;75.87
55801;BME280;41730;51.960;20.158;2023-02-08T05:13:03;102956.28;;;0.13;75.41
55801;BME280;41730;51.960;20.158;2023-02-08T05:15:35;102958.70;;;0.15;75.54
55801;BME280;41730;51.960;20.158;2023-02-08T05:18:07;102963.17;;;0.10;75.81
55801;BME280;41730;51.960;20.158;2023-02-08T05:20:38;102971.94;;;0.07;75.65
55801;BME280;41730;51.960;20.158;2023-02-08T05:23:11;102974.20;;;0.08;75.91
55801;BME280;41730;51.960;20.158;2023-02-08T05:25:42;102973.71;;;0.17;75.91
55801;BME280;41730;51.960;20.158;2023-02-08T05:28:14;102975.63;;;0.20;75.23
55801;BME280;41730;51.960;20.158;2023-02-08T05:30:46;102981.88;;;0.28;75.31
55801;BME280;41730;51.960;20.158;2023-02-08T05:33:18;102982.89;;;0.20;75.45
55801;BME280;41730;51.960;20.158;2023-02-08T05:35:50;102985.77;;;0.11;75.92
55801;BME280;41730;51.960;20.158;2023-02-08T05:38:22;102983.64;;;0.00;76.05
55801;BME280;41730;51.960;20.158;2023-02-08T05:40:53;102991.09;;;0.08;76.18
55801;BME280;41730;51.960;20.158;2023-02-08T05:43:25;102995.43;;;0.11;76.31
55801;BME280;41730;51.960;20.158;2023-02-08T05:45:57;102997.37;;;0.19;76.25
55801;BME280;41730;51.960;20.158;2023-02-08T05:48:30;103002.06;;;0.28;75.74
55801;BME280;41730;51.960;20.158;2023-02-08T05:51:02;102999.67;;;0.30;75.62
55801;BME280;41730;51.960;20.158;2023-02-08T05:53:33;103002.64;;;0.39;75.54
55801;BME280;41730;51.960;20.158;2023-02-08T05:56:06;103011.80;;;0.42;75.46
55801;BME280;41730;51.960;20.158;2023-02-08T05:58:38;103011.95;;;0.35;75.79
55801;BME280;41730;51.960;20.158;2023-02-08T06:01:11;103015.75;;;0.35;75.81
55801;BME280;41730;51.960;20.158;2023-02-08T06:03:43;103022.08;;;0.24;76.05
55801;BME280;41730;51.960;20.158;2023-02-08T06:06:15;103024.81;;;0.20;76.36
55801;BME280;41730;51.960;20.158;2023-02-08T06:08:47;103021.52;;;0.20;76.49
55801;BME280;41730;51.960;20.158;2023-02-08T06:11:18;103028.77;;;0.17;76.42
55801;BME280;41730;51.960;20.158;2023-02-08T06:13:50;103022.24;;;0.23;76.50
55801;BME280;41730;51.960;20.158;2023-02-08T06:16:22;103022.73;;;0.18;76.57
55801;BME280;41730;51.960;20.158;2023-02-08T06:18:54;103028.29;;;0.28;76.39
55801;BME280;41730;51.960;20.158;2023-02-08T06:21:25;103023.98;;;0.23;76.22
55801;BME280;41730;51.960;20.158;2023-02-08T06:23:57;103031.34;;;0.16;76.63
55801;BME280;41730;51.960;20.158;2023-02-08T06:26:28;103032.05;;;0.18;76.63
55801;BME280;41730;51.960;20.158;2023-02-08T06:29:00;103032.06;;;0.21;76.59
55801;BME280;41730;51.960;20.158;2023-02-08T06:31:32;103036.23;;;0.29;76.59
55801;BME280;41730;51.960;20.158;2023-02-08T06:34:04;103039.83;;;0.22;76.87
55801;BME280;41730;51.960;20.158;2023-02-08T06:36:36;103041.23;;;0.26;76.69
55801;BME280;41730;51.960;20.158;2023-02-08T06:39:08;103043.48;;;0.29;76.54
55801;BME280;41730;51.960;20.158;2023-02-08T06:41:39;103044.41;;;0.39;76.62
55801;BME280;41730;51.960;20.158;2023-02-08T06:44:11;103049.95;;;0.42;76.33
55801;BME280;41730;51.960;20.158;2023-02-08T06:46:43;103049.62;;;0.45;76.31
55801;BME280;41730;51.960;20.158;2023-02-08T06:49:15;103047.77;;;0.57;76.15
55801;BME280;41730;51.960;20.158;2023-02-08T06:51:47;103050.91;;;0.64;75.85
55801;BME280;41730;51.960;20.158;2023-02-08T06:54:19;103054.55;;;0.65;76.01
55801;BME280;41730;51.960;20.158;2023-02-08T06:56:52;103054.73;;;0.71;75.68
55801;BME280;41730;51.960;20.158;2023-02-08T06:59:24;103060.59;;;0.67;75.71
55801;BME280;41730;51.960;20.158;2023-02-08T07:01:56;103063.33;;;0.60;76.02
55801;BME280;41730;51.960;20.158;2023-02-08T07:04:30;103065.39;;;0.59;76.13
55801;BME280;41730;51.960;20.158;2023-02-08T07:07:02;103065.40;;;0.60;75.91
55801;BME280;41730;51.960;20.158;2023-02-08T07:09:34;103073.52;;;0.64;76.12
55801;BME280;41730;51.960;20.158;2023-02-08T07:12:07;103077.88;;;0.71;76.04
55801;BME280;41730;51.960;20.158;2023-02-08T07:14:41;103079.08;;;0.69;75.80
55801;BME280;41730;51.960;20.158;2023-02-08T07:17:14;103079.54;;;0.58;76.04
55801;BME280;41730;51.960;20.158;2023-02-08T07:19:45;103085.56;;;0.52;76.18
55801;BME280;41730;51.960;20.158;2023-02-08T07:22:17;103087.58;;;0.43;76.52
55801;BME280;41730;51.960;20.158;2023-02-08T07:24:49;103089.95;;;0.36;76.54
55801;BME280;41730;51.960;20.158;2023-02-08T07:27:21;103095.31;;;0.38;76.33
55801;BME280;41730;51.960;20.158;2023-02-08T07:29:54;103093.21;;;0.33;76.25
55801;BME280;41730;51.960;20.158;2023-02-08T07:32:26;103097.52;;;0.31;76.84
55801;BME280;41730;51.960;20.158;2023-02-08T07:34:59;103089.52;;;0.49;76.17
55801;BME280;41730;51.960;20.158;2023-02-08T07:37:31;103089.73;;;0.56;75.32
55801;BME280;41730;51.960;20.158;2023-02-08T07:40:04;103088.50;;;0.54;75.35
55801;BME280;41730;51.960;20.158;2023-02-08T07:42:36;103087.33;;;0.62;75.13
55801;BME280;41730;51.960;20.158;2023-02-08T07:45:09;103088.05;;;0.67;74.92
55801;BME280;41730;51.960;20.158;2023-02-08T07:47:42;103085.61;;;0.60;75.18
55801;BME280;41730;51.960;20.158;2023-02-08T07:50:18;103080.20;;;0.51;75.89
55801;BME280;41730;51.960;20.158;2023-02-08T07:52:50;103084.35;;;0.51;75.89
55801;BME280;41730;51.960;20.158;2023-02-08T07:55:22;103083.48;;;0.51;75.79
55801;BME280;41730;51.960;20.158;2023-02-08T07:57:56;103086.09;;;0.56;75.91
55801;BME280;41730;51.960;20.158;2023-02-08T08:00:28;103086.11;;;0.58;76.00
55801;BME280;41730;51.960;20.158;2023-02-08T08:03:01;103092.89;;;0.67;76.22
55801;BME280;41730;51.960;20.158;2023-02-08T08:05:32;103089.79;;;0.67;76.03
55801;BME280;41730;51.960;20.158;2023-02-08T08:08:05;103090.11;;;0.65;75.66
55801;BME280;41730;51.960;20.158;2023-02-08T08:10:38;103095.13;;;0.65;75.85
55801;BME280;41730;51.960;20.158;2023-02-08T08:13:11;103098.23;;;0.66;75.62
55801;BME280;41730;51.960;20.158;2023-02-08T08:15:45;103100.15;;;0.72;75.86
55801;BME280;41730;51.960;20.158;2023-02-08T08:18:17;103096.88;;;0.73;75.76
55801;BME280;41730;51.960;20.158;2023-02-08T08:20:50;103097.77;;;0.79;75.78
55801;BME280;41730;51.960;20.158;2023-02-08T08:23:23;103099.55;;;0.93;75.70
55801;BME280;41730;51.960;20.158;2023-02-08T08:25:55;103100.11;;;1.01;75.02
55801;BME280;41730;51.960;20.158;2023-02-08T08:28:28;103102.34;;;0.98;75.14
55801;BME280;41730;51.960;20.158;2023-02-08T08:31:01;103100.77;;;0.92;75.45
55801;BME280;41730;51.960;20.158;2023-02-08T08:33:34;103104.39;;;0.91;75.39
55801;BME280;41730;51.960;20.158;2023-02-08T08:36:08;103101.62;;;0.90;75.18
55801;BME280;41730;51.960;20.158;2023-02-08T08:38:40;103103.32;;;0.85;75.62
55801;BME280;41730;51.960;20.158;2023-02-08T08:41:14;103095.89;;;0.83;75.63
55801;BME280;41730;51.960;20.158;2023-02-08T08:43:48;103100.90;;;0.84;75.81
55801;BME280;41730;51.960;20.158;2023-02-08T08:46:20;103099.35;;;0.84;75.39
55801;BME280;41730;51.960;20.158;2023-02-08T08:48:53;103097.44;;;0.81;75.80
55801;BME280;41730;51.960;20.158;2023-02-08T08:51:26;103098.46;;;0.75;75.56
55801;BME280;41730;51.960;20.158;2023-02-08T08:54:01;103101.23;;;0.78;75.79
55801;BME280;41730;51.960;20.158;2023-02-08T08:56:34;103104.36;;;0.82;75.96
55801;BME280;41730;51.960;20.158;2023-02-08T08:59:06;103102.29;;;0.85;75.68
55801;BME280;41730;51.960;20.158;2023-02-08T09:01:39;103104.58;;;0.98;75.72
55801;BME280;41730;51.960;20.158;2023-02-08T09:04:12;103105.31;;;1.06;75.25
55801;BME280;41730;51.960;20.158;2023-02-08T09:06:44;103103.23;;;1.03;75.42
55801;BME280;41730;51.960;20.158;2023-02-08T09:09:18;103102.03;;;1.05;75.44
55801;BME280;41730;51.960;20.158;2023-02-08T09:11:50;103103.75;;;1.02;75.85
55801;BME280;41730;51.960;20.158;2023-02-08T09:14:23;103110.70;;;1.23;75.52
55801;BME280;41730;51.960;20.158;2023-02-08T09:16:56;103110.03;;;1.31;74.86
55801;BME280;41730;51.960;20.158;2023-02-08T09:19:28;103107.94;;;1.17;75.40
55801;BME280;41730;51.960;20.158;2023-02-08T09:22:01;103107.77;;;1.20;75.34
55801;BME280;41730;51.960;20.158;2023-02-08T09:24:33;103109.84;;;1.22;75.47
55801;BME280;41730;51.960;20.158;2023-02-08T09:27:06;103112.29;;;1.30;75.52
55801;BME280;41730;51.960;20.158;2023-02-08T09:29:38;103115.74;;;1.32;75.72
55801;BME280;41730;51.960;20.158;2023-02-08T09:32:11;103114.38;;;1.33;75.91
55801;BME280;41730;51.960;20.158;2023-02-08T09:34:44;103124.08;;;1.46;75.70
55801;BME280;41730;51.960;20.158;2023-02-08T09:37:17;103125.66;;;1.65;75.28
55801;BME280;41730;51.960;20.158;2023-02-08T09:39:50;103122.91;;;1.80;74.64
55801;BME280;41730;51.960;20.158;2023-02-08T09:42:29;103126.02;;;1.80;74.37
55801;BME280;41730;51.960;20.158;2023-02-08T09:45:25;103125.51;;;1.83;74.49
55801;BME280;41730;51.960;20.158;2023-02-08T09:48:06;103122.04;;;1.92;74.44
55801;BME280;41730;51.960;20.158;2023-02-08T09:50:47;103118.23;;;1.96;74.33
55801;BME280;41730;51.960;20.158;2023-02-08T09:53:23;103119.80;;;2.06;74.10
55801;BME280;41730;51.960;20.158;2023-02-08T09:56:00;103122.91;;;2.11;73.82
55801;BME280;41730;51.960;20.158;2023-02-08T09:58:38;103119.79;;;2.19;73.81
55801;BME280;41730;51.960;20.158;2023-02-08T10:01:17;103120.64;;;2.24;73.50
55801;BME280;41730;51.960;20.158;2023-02-08T10:03:54;103116.13;;;2.28;73.26
55801;BME280;41730;51.960;20.158;2023-02-08T10:06:28;103114.92;;;2.28;73.25
55801;BME280;41730;51.960;20.158;2023-02-08T10:09:04;103115.27;;;2.23;73.36
55801;BME280;41730;51.960;20.158;2023-02-08T10:11:51;103111.13;;;2.26;73.31
55801;BME280;41730;51.960;20.158;2023-02-08T10:14:38;103110.75;;;2.36;73.53
55801;BME280;41730;51.960;20.158;2023-02-08T10:20:21;103112.53;;;2.81;72.66
55801;BME280;41730;51.960;20.158;2023-02-08T10:23:02;103110.63;;;2.80;72.38
55801;BME280;41730;51.960;20.158;2023-02-08T10:25:49;103103.65;;;2.92;72.49
55801;BME280;41730;51.960;20.158;2023-02-08T10:28:39;103099.09;;;3.02;71.98
55801;BME280;41730;51.960;20.158;2023-02-08T10:31:27;103095.25;;;3.07;72.03
55801;BME280;41730;51.960;20.158;2023-02-08T10:34:10;103091.05;;;3.16;71.90
55801;BME280;41730;51.960;20.158;2023-02-08T10:36:46;103091.54;;;3.20;71.73
55801;BME280;41730;51.960;20.158;2023-02-08T10:39:21;103090.66;;;3.20;71.28
55801;BME280;41730;51.960;20.158;2023-02-08T10:41:56;103090.48;;;3.24;71.34
55801;BME280;41730;51.960;20.158;2023-02-08T10:44:35;103089.86;;;3.40;70.92
55801;BME280;41730;51.960;20.158;2023-02-08T10:47:16;103088.52;;;3.60;70.43
55801;BME280;41730;51.960;20.158;2023-02-08T10:49:56;103084.84;;;3.62;70.37
55801;BME280;41730;51.960;20.158;2023-02-08T10:52:31;103081.25;;;3.56;69.78
55801;BME280;41730;51.960;20.158;2023-02-08T10:55:12;103079.89;;;3.53;69.20
55801;BME280;41730;51.960;20.158;2023-02-08T10:57:46;103077.80;;;3.54;69.03
55801;BME280;41730;51.960;20.158;2023-02-08T11:00:23;103073.81;;;3.52;68.86
55801;BME280;41730;51.960;20.158;2023-02-08T11:02:58;103071.77;;;3.48;68.92
55801;BME280;41730;51.960;20.158;2023-02-08T11:05:37;103074.41;;;3.42;68.15
55801;BME280;41730;51.960;20.158;2023-02-08T11:08:11;103076.48;;;3.41;68.12
55801;BME280;41730;51.960;20.158;2023-02-08T11:10:54;103074.38;;;3.45;68.34
55801;BME280;41730;51.960;20.158;2023-02-08T11:13:33;103070.24;;;3.41;68.18
55801;BME280;41730;51.960;20.158;2023-02-08T11:16:08;103070.75;;;3.44;67.90
55801;BME280;41730;51.960;20.158;2023-02-08T11:18:48;103065.58;;;3.42;67.31
55801;BME280;41730;51.960;20.158;2023-02-08T11:21:26;103067.73;;;3.29;67.39
55801;BME280;41730;51.960;20.158;2023-02-08T11:26:57;103065.10;;;3.33;66.19
55801;BME280;41730;51.960;20.158;2023-02-08T11:29:31;103057.84;;;3.31;66.30
55801;BME280;41730;51.960;20.158;2023-02-08T11:32:16;103058.55;;;3.27;66.63
55801;BME280;41730;51.960;20.158;2023-02-08T11:34:49;103061.59;;;3.39;66.64
55801;BME280;41730;51.960;20.158;2023-02-08T11:37:23;103060.35;;;3.42;66.53
55801;BME280;41730;51.960;20.158;2023-02-08T11:39:58;103057.59;;;3.42;66.82
55801;BME280;41730;51.960;20.158;2023-02-08T11:42:36;103053.06;;;3.43;66.86
55801;BME280;41730;51.960;20.158;2023-02-08T11:45:19;103055.02;;;3.62;66.40
55801;BME280;41730;51.960;20.158;2023-02-08T11:47:53;103055.98;;;3.69;65.60
55801;BME280;41730;51.960;20.158;2023-02-08T11:50:29;103049.60;;;3.66;66.12
55801;BME280;41730;51.960;20.158;2023-02-08T11:53:04;103041.73;;;3.73;66.41
55801;BME280;41730;51.960;20.158;2023-02-08T11:55:37;103043.77;;;3.77;66.57
55801;BME280;41730;51.960;20.158;2023-02-08T11:58:19;103036.27;;;3.81;66.50
55801;BME280;41730;51.960;20.158;2023-02-08T12:00:58;103031.25;;;3.99;66.43
55801;BME280;41730;51.960;20.158;2023-02-08T12:03:34;103030.13;;;3.89;66.73
55801;BME280;41730;51.960;20.158;2023-02-08T12:06:24;103036.88;;;3.91;65.94
55801;BME280;41730;51.960;20.158;2023-02-08T12:09:08;103029.55;;;3.95;64.92
55801;BME280;41730;51.960;20.158;2023-02-08T12:11:44;103036.08;;;3.84;64.96
55801;BME280;41730;51.960;20.158;2023-02-08T12:14:33;103041.13;;;3.81;64.97
55801;BME280;41730;51.960;20.158;2023-02-08T12:17:35;103048.16;;;3.72;65.17
55801;BME280;41730;51.960;20.158;2023-02-08T12:20:36;103042.17;;;3.81;64.79
55801;BME280;41730;51.960;20.158;2023-02-08T12:26:19;103037.59;;;3.89;64.70
55801;BME280;41730;51.960;20.158;2023-02-08T12:29:07;103037.68;;;3.79;64.82
55801;BME280;41730;51.960;20.158;2023-02-08T12:31:56;103035.93;;;3.81;64.87
55801;BME280;41730;51.960;20.158;2023-02-08T12:34:45;103033.33;;;3.81;64.82
55801;BME280;41730;51.960;20.158;2023-02-08T12:37:28;103027.42;;;3.81;64.94
55801;BME280;41730;51.960;20.158;2023-02-08T12:40:33;103023.80;;;3.79;65.10
55801;BME280;41730;51.960;20.158;2023-02-08T12:43:39;103021.20;;;3.79;65.10
55801;BME280;41730;51.960;20.158;2023-02-08T12:46:27;103019.91;;;3.86;65.02
55801;BME280;41730;51.960;20.158;2023-02-08T12:52:05;103011.21;;;3.89;65.23
55801;BME280;41730;51.960;20.158;2023-02-08T12:54:47;103004.42;;;3.91;64.19
55801;BME280;41730;51.960;20.158;2023-02-08T12:57:24;103001.75;;;3.79;64.50
55801;BME280;41730;51.960;20.158;2023-02-08T13:00:04;103004.17;;;3.81;64.78
55801;BME280;41730;51.960;20.158;2023-02-08T13:02:39;103006.23;;;3.82;64.56
55801;BME280;41730;51.960;20.158;2023-02-08T13:05:19;102998.52;;;3.91;64.42
55801;BME280;41730;51.960;20.158;2023-02-08T13:08:00;103002.41;;;3.84;64.73
55801;BME280;41730;51.960;20.158;2023-02-08T13:10:35;102999.92;;;3.88;64.62
55801;BME280;41730;51.960;20.158;2023-02-08T13:13:14;102994.21;;;4.04;64.43
55801;BME280;41730;51.960;20.158;2023-02-08T13:15:52;102992.81;;;4.06;64.44
55801;BME280;41730;51.960;20.158;2023-02-08T13:18:30;102990.95;;;4.00;64.85
55801;BME280;41730;51.960;20.158;2023-02-08T13:21:06;102984.62;;;4.07;64.76
55801;BME280;41730;51.960;20.158;2023-02-08T13:23:44;102985.95;;;4.12;64.58
55801;BME280;41730;51.960;20.158;2023-02-08T13:26:23;102986.88;;;4.22;64.42
55801;BME280;41730;51.960;20.158;2023-02-08T13:28:59;102977.24;;;4.29;64.18
55801;BME280;41730;51.960;20.158;2023-02-08T13:31:36;102974.48;;;4.29;64.06
55801;BME280;41730;51.960;20.158;2023-02-08T13:34:16;102977.59;;;4.30;63.93
55801;BME280;41730;51.960;20.158;2023-02-08T13:36:52;102982.45;;;4.30;63.43
55801;BME280;41730;51.960;20.158;2023-02-08T13:39:35;102985.47;;;4.24;62.89
55801;BME280;41730;51.960;20.158;2023-02-08T13:42:17;102977.55;;;4.18;62.82
55801;BME280;41730;51.960;20.158;2023-02-08T13:44:52;102979.57;;;4.10;62.65
55801;BME280;41730;51.960;20.158;2023-02-08T13:47:28;102979.88;;;3.98;63.21